sensor_id;sensor_type;location;lat;lon;timestamp;temperature;humidity
18777;DHT22;9517;51.174;4.160;2023-12-22T00:06:13;10.00;99.90
18777;DHT22;9517;51.174;4.160;2023-12-22T00:08:50;10.00;99.90
18777;DHT22;9517;51.174;4.160;2023-12-22T00:11:40;9.90;99.90
18777;DHT22;9517;51.174;4.160;2023-12-22T00:14:22;9.80;99.90
18777;DHT22;9517;51.174;4.160;2023-12-22T00:17:02;9.70;99.90
18777;DHT22;9517;51.174;4.160;2023-12-22T00:20:00;9.70;99.90
18777;DHT22;9517;51.174;4.160;2023-12-22T00:22:47;9.70;99.90
18777;DHT22;9517;51.174;4.160;2023-12-22T00:25:31;9.60;99.90
18777;DHT22;9517;51.174;4.160;2023-12-22T00:28:15;9.60;99.90
18777;DHT22;9517;51.174;4.160;2023-12-22T00:30:50;9.60;99.90
18777;DHT22;9517;51.174;4.160;2023-12-22T00:33:23;9.60;99.90
18777;DHT22;9517;51.174;4.160;2023-12-22T00:36:05;9.60;99.90
18777;DHT22;9517;51.174;4.160;2023-12-22T00:38:45;9.60;99.90
18777;DHT22;9517;51.174;4.160;2023-12-22T00:41:22;9.60;99.90
18777;DHT22;9517;51.174;4.160;2023-12-22T00:44:13;9.60;99.90
18777;DHT22;9517;51.174;4.160;2023-12-22T00:46:52;9.60;99.90
18777;DHT22;9517;51.174;4.160;2023-12-22T00:49:24;9.70;99.90
18777;DHT22;9517;51.174;4.160;2023-12-22T00:51:55;9.70;99.90
18777;DHT22;9517;51.174;4.160;2023-12-22T00:54:27;9.70;99.90
18777;DHT22;9517;51.174;4.160;2023-12-22T00:56:59;9.80;99.90
18777;DHT22;9517;51.174;4.160;2023-12-22T01:00:03;9.80;99.90
18777;DHT22;9517;51.174;4.160;2023-12-22T01:02:52;9.70;99.90
18777;DHT22;9517;51.174;4.160;2023-12-22T01:05:36;9.70;99.90
18777;DHT22;9517;51.174;4.160;2023-12-22T01:08:16;9.70;99.90
18777;DHT22;9517;51.174;4.160;2023-12-22T01:11:01;9.80;99.90
18777;DHT22;9517;51.174;4.160;2023-12-22T01:13:43;9.90;99.90
18777;DHT22;9517;51.174;4.160;2023-12-22T01:16:14;9.90;99.90
18777;DHT22;9517;51.174;4.160;2023-12-22T01:19:06;9.90;99.90
18777;DHT22;9517;51.174;4.160;2023-12-22T01:21:39;9.90;99.90
18777;DHT22;9517;51.174;4.160;2023-12-22T01:24:15;9.90;99.90
18777;DHT22;9517;51.174;4.160;2023-12-22T01:26:50;10.00;99.90
18777;DHT22;9517;51.174;4.160;2023-12-22T01:29:34;10.00;99.90
18777;DHT22;9517;51.174;4.160;2023-12-22T01:32:20;10.00;99.90
18777;DHT22;9517;51.174;4.160;2023-12-22T01:34:53;10.00;99.90
18777;DHT22;9517;51.174;4.160;2023-12-22T01:37:28;10.00;99.90
18777;DHT22;9517;51.174;4.160;2023-12-22T01:40:01;10.00;99.90
18777;DHT22;9517;51.174;4.160;2023-12-22T01:42:47;10.00;99.90
18777;DHT22;9517;51.174;4.160;2023-12-22T01:45:18;9.80;99.90
18777;DHT22;9517;51.174;4.160;2023-12-22T01:48:05;9.80;99.90
18777;DHT22;9517;51.174;4.160;2023-12-22T01:50:41;9.80;99.90
18777;DHT22;9517;51.174;4.160;2023-12-22T01:53:34;9.80;99.90
18777;DHT22;9517;51.174;4.160;2023-12-22T01:56:14;9.90;99.90
18777;DHT22;9517;51.174;4.160;2023-12-22T01:58:47;10.00;99.90
18777;DHT22;9517;51.174;4.160;2023-12-22T02:01:45;10.00;99.90
18777;DHT22;9517;51.174;4.160;2023-12-22T02:04:17;10.00;99.90
18777;DHT22;9517;51.174;4.160;2023-12-22T02:06:55;10.00;99.90
18777;DHT22;9517;51.174;4.160;2023-12-22T02:09:30;9.90;99.90
18777;DHT22;9517;51.174;4.160;2023-12-22T02:12:13;10.00;99.90
18777;DHT22;9517;51.174;4.160;2023-12-22T02:14:45;9.90;99.90
18777;DHT22;9517;51.174;4.160;2023-12-22T02:17:29;9.90;99.90
18777;DHT22;9517;51.174;4.160;2023-12-22T02:20:19;9.80;99.90
18777;DHT22;9517;51.174;4.160;2023-12-22T02:22:54;9.80;99.90
18777;DHT22;9517;51.174;4.160;2023-12-22T02:25:21;9.80;99.90
18777;DHT22;9517;51.174;4.160;2023-12-22T02:27:56;9.80;99.90
18777;DHT22;9517;51.174;4.160;2023-12-22T02:30:46;9.80;99.90
18777;DHT22;9517;51.174;4.160;2023-12-22T02:33:23;9.80;99.90
18777;DHT22;9517;51.174;4.160;2023-12-22T02:36:01;9.70;99.90
18777;DHT22;9517;51.174;4.160;2023-12-22T02:38:42;9.70;99.90
18777;DHT22;9517;51.174;4.160;2023-12-22T02:41:14;9.70;99.90
18777;DHT22;9517;51.174;4.160;2023-12-22T02:43:42;9.80;99.90
18777;DHT22;9517;51.174;4.160;2023-12-22T02:46:13;9.70;99.90
18777;DHT22;9517;51.174;4.160;2023-12-22T02:48:47;9.70;99.90
18777;DHT22;9517;51.174;4.160;2023-12-22T02:54:29;9.70;99.90
18777;DHT22;9517;51.174;4.160;2023-12-22T02:57:08;9.70;99.90
18777;DHT22;9517;51.174;4.160;2023-12-22T03:02:41;9.80;99.90
18777;DHT22;9517;51.174;4.160;2023-12-22T03:05:33;9.90;99.90
18777;DHT22;9517;51.174;4.160;2023-12-22T03:08:17;9.80;99.90
18777;DHT22;9517;51.174;4.160;2023-12-22T03:11:02;9.70;99.90
18777;DHT22;9517;51.174;4.160;2023-12-22T03:13:57;9.70;99.90
18777;DHT22;9517;51.174;4.160;2023-12-22T03:16:40;9.60;99.90
18777;DHT22;9517;51.174;4.160;2023-12-22T03:19:28;9.60;99.90
18777;DHT22;9517;51.174;4.160;2023-12-22T03:22:10;9.60;99.90
18777;DHT22;9517;51.174;4.160;2023-12-22T03:25:06;9.50;99.90
18777;DHT22;9517;51.174;4.160;2023-12-22T03:27:43;9.50;99.90
18777;DHT22;9517;51.174;4.160;2023-12-22T03:30:22;9.50;99.90
18777;DHT22;9517;51.174;4.160;2023-12-22T03:33:00;9.50;99.90
18777;DHT22;9517;51.174;4.160;2023-12-22T03:35:40;9.50;99.90
18777;DHT22;9517;51.174;4.160;2023-12-22T03:38:12;9.50;99.90
18777;DHT22;9517;51.174;4.160;2023-12-22T03:41:00;9.40;99.90
18777;DHT22;9517;51.174;4.160;2023-12-22T03:44:01;9.30;99.90
18777;DHT22;9517;51.174;4.160;2023-12-22T03:46:39;9.30;99.90
18777;DHT22;9517;51.174;4.160;2023-12-22T03:49:16;9.30;99.90
18777;DHT22;9517;51.174;4.160;2023-12-22T03:51:54;9.20;99.90
18777;DHT22;9517;51.174;4.160;2023-12-22T03:54:35;9.20;99.90
18777;DHT22;9517;51.174;4.160;2023-12-22T03:57:06;9.10;99.90
18777;DHT22;9517;51.174;4.160;2023-12-22T03:59:54;9.00;99.90
18777;DHT22;9517;51.174;4.160;2023-12-22T04:02:35;9.10;99.90
18777;DHT22;9517;51.174;4.160;2023-12-22T04:05:25;9.10;99.90
18777;DHT22;9517;51.174;4.160;2023-12-22T04:08:11;9.00;99.90
18777;DHT22;9517;51.174;4.160;2023-12-22T04:10:46;9.00;99.90
18777;DHT22;9517;51.174;4.160;2023-12-22T04:14:07;9.10;99.90
18777;DHT22;9517;51.174;4.160;2023-12-22T04:16:52;9.10;99.90
18777;DHT22;9517;51.174;4.160;2023-12-22T04:19:32;9.20;99.90
18777;DHT22;9517;51.174;4.160;2023-12-22T04:22:08;9.20;99.90
18777;DHT22;9517;51.174;4.160;2023-12-22T04:24:52;9.20;99.90
18777;DHT22;9517;51.174;4.160;2023-12-22T04:27:37;9.20;99.90
18777;DHT22;9517;51.174;4.160;2023-12-22T04:30:10;9.20;99.90
18777;DHT22;9517;51.174;4.160;2023-12-22T04:33:01;9.30;99.90
18777;DHT22;9517;51.174;4.160;2023-12-22T04:35:44;9.30;99.90
18777;DHT22;9517;51.174;4.160;2023-12-22T04:38:22;9.30;99.90
18777;DHT22;9517;51.174;4.160;2023-12-22T04:40:57;9.30;99.90
18777;DHT22;9517;51.174;4.160;2023-12-22T04:43:34;9.30;99.90
18777;DHT22;9517;51.174;4.160;2023-12-22T04:46:11;9.30;99.90
18777;DHT22;9517;51.174;4.160;2023-12-22T04:48:51;9.30;99.90
18777;DHT22;9517;51.174;4.160;2023-12-22T04:51:24;9.30;99.90
18777;DHT22;9517;51.174;4.160;2023-12-22T04:53:53;9.40;99.90
18777;DHT22;9517;51.174;4.160;2023-12-22T04:56:25;9.40;99.90
18777;DHT22;9517;51.174;4.160;2023-12-22T04:58:55;9.50;99.90
18777;DHT22;9517;51.174;4.160;2023-12-22T05:01:50;9.60;99.90
18777;DHT22;9517;51.174;4.160;2023-12-22T05:04:22;9.60;99.90
18777;DHT22;9517;51.174;4.160;2023-12-22T05:06:56;9.70;99.90
18777;DHT22;9517;51.174;4.160;2023-12-22T05:09:44;9.70;99.90
18777;DHT22;9517;51.174;4.160;2023-12-22T05:12:20;9.70;99.90
18777;DHT22;9517;51.174;4.160;2023-12-22T05:14:56;9.70;99.90
18777;DHT22;9517;51.174;4.160;2023-12-22T05:17:32;9.70;99.90
18777;DHT22;9517;51.174;4.160;2023-12-22T05:20:11;9.70;99.90
18777;DHT22;9517;51.174;4.160;2023-12-22T05:22:44;9.80;99.90
18777;DHT22;9517;51.174;4.160;2023-12-22T05:25:22;9.80;99.90
18777;DHT22;9517;51.174;4.160;2023-12-22T05:27:49;9.80;99.90
18777;DHT22;9517;51.174;4.160;2023-12-22T05:30:17;9.80;99.90
18777;DHT22;9517;51.174;4.160;2023-12-22T05:32:46;9.80;99.90
18777;DHT22;9517;51.174;4.160;2023-12-22T05:35:15;9.80;99.90
18777;DHT22;9517;51.174;4.160;2023-12-22T05:37:42;9.80;99.90
18777;DHT22;9517;51.174;4.160;2023-12-22T05:40:09;9.90;99.90
18777;DHT22;9517;51.174;4.160;2023-12-22T05:42:37;9.90;99.90
18777;DHT22;9517;51.174;4.160;2023-12-22T05:45:05;9.90;99.90
18777;DHT22;9517;51.174;4.160;2023-12-22T05:47:36;9.90;99.90
18777;DHT22;9517;51.174;4.160;2023-12-22T05:50:04;10.00;99.90
18777;DHT22;9517;51.174;4.160;2023-12-22T05:52:33;10.00;99.90
18777;DHT22;9517;51.174;4.160;2023-12-22T05:55:00;10.00;99.90
18777;DHT22;9517;51.174;4.160;2023-12-22T05:57:28;10.10;99.90
18777;DHT22;9517;51.174;4.160;2023-12-22T05:59:55;10.10;99.90
18777;DHT22;9517;51.174;4.160;2023-12-22T06:02:27;10.10;99.90
18777;DHT22;9517;51.174;4.160;2023-12-22T06:05:15;10.10;99.90
18777;DHT22;9517;51.174;4.160;2023-12-22T06:07:46;10.10;99.90
18777;DHT22;9517;51.174;4.160;2023-12-22T06:20:08;10.20;99.90
18777;DHT22;9517;51.174;4.160;2023-12-22T06:33:35;10.20;99.90
18777;DHT22;9517;51.174;4.160;2023-12-22T06:36:06;10.20;99.90
18777;DHT22;9517;51.174;4.160;2023-12-22T06:41:31;10.10;99.90
18777;DHT22;9517;51.174;4.160;2023-12-22T06:44:22;10.10;99.90
18777;DHT22;9517;51.174;4.160;2023-12-22T06:54:31;9.80;99.90
18777;DHT22;9517;51.174;4.160;2023-12-22T06:57:06;9.70;99.90
18777;DHT22;9517;51.174;4.160;2023-12-22T06:59:51;9.40;99.90
18777;DHT22;9517;51.174;4.160;2023-12-22T07:06:53;9.20;99.90
18777;DHT22;9517;51.174;4.160;2023-12-22T07:09:32;9.10;99.90
18777;DHT22;9517;51.174;4.160;2023-12-22T07:12:14;9.00;99.90
18777;DHT22;9517;51.174;4.160;2023-12-22T07:37:35;9.00;99.90
18777;DHT22;9517;51.174;4.160;2023-12-22T07:40:05;9.00;99.90
18777;DHT22;9517;51.174;4.160;2023-12-22T07:42:46;9.00;99.90
18777;DHT22;9517;51.174;4.160;2023-12-22T07:45:42;9.00;99.90
18777;DHT22;9517;51.174;4.160;2023-12-22T07:48:29;9.00;99.90
18777;DHT22;9517;51.174;4.160;2023-12-22T08:08:08;9.10;99.90
18777;DHT22;9517;51.174;4.160;2023-12-22T08:10:38;9.10;99.90
18777;DHT22;9517;51.174;4.160;2023-12-22T08:13:26;9.10;99.90
18777;DHT22;9517;51.174;4.160;2023-12-22T08:19:36;9.20;99.90
18777;DHT22;9517;51.174;4.160;2023-12-22T08:24:55;9.30;99.90
18777;DHT22;9517;51.174;4.160;2023-12-22T08:27:22;9.30;99.90
18777;DHT22;9517;51.174;4.160;2023-12-22T08:29:54;9.30;99.90
18777;DHT22;9517;51.174;4.160;2023-12-22T08:32:22;9.40;99.90
18777;DHT22;9517;51.174;4.160;2023-12-22T08:34:51;9.40;99.90
18777;DHT22;9517;51.174;4.160;2023-12-22T08:37:18;9.50;99.90
18777;DHT22;9517;51.174;4.160;2023-12-22T08:39:48;9.50;99.90
18777;DHT22;9517;51.174;4.160;2023-12-22T08:42:16;9.50;99.90
18777;DHT22;9517;51.174;4.160;2023-12-22T08:44:45;9.50;99.90
18777;DHT22;9517;51.174;4.160;2023-12-22T08:47:12;9.60;99.90
18777;DHT22;9517;51.174;4.160;2023-12-22T08:49:40;9.50;99.90
18777;DHT22;9517;51.174;4.160;2023-12-22T08:52:19;9.60;99.90
18777;DHT22;9517;51.174;4.160;2023-12-22T08:54:46;9.60;99.90
18777;DHT22;9517;51.174;4.160;2023-12-22T08:57:17;9.60;99.90
18777;DHT22;9517;51.174;4.160;2023-12-22T08:59:46;9.60;99.90
18777;DHT22;9517;51.174;4.160;2023-12-22T09:02:13;9.70;99.90
18777;DHT22;9517;51.174;4.160;2023-12-22T09:04:48;9.70;99.90
18777;DHT22;9517;51.174;4.160;2023-12-22T09:14:43;9.70;99.90
18777;DHT22;9517;51.174;4.160;2023-12-22T09:33:12;9.80;99.90
18777;DHT22;9517;51.174;4.160;2023-12-22T09:35:59;9.80;99.90
18777;DHT22;9517;51.174;4.160;2023-12-22T09:38:29;9.80;99.90
18777;DHT22;9517;51.174;4.160;2023-12-22T09:41:00;9.90;99.90
18777;DHT22;9517;51.174;4.160;2023-12-22T09:43:37;9.90;99.90
18777;DHT22;9517;51.174;4.160;2023-12-22T09:46:05;9.90;99.90
18777;DHT22;9517;51.174;4.160;2023-12-22T10:05:02;10.40;99.90
18777;DHT22;9517;51.174;4.160;2023-12-22T10:07:30;10.40;99.90
18777;DHT22;9517;51.174;4.160;2023-12-22T10:09:59;10.50;99.90
18777;DHT22;9517;51.174;4.160;2023-12-22T10:12:29;10.50;99.90
18777;DHT22;9517;51.174;4.160;2023-12-22T10:14:59;10.60;99.90
18777;DHT22;9517;51.174;4.160;2023-12-22T10:17:27;10.60;99.90
18777;DHT22;9517;51.174;4.160;2023-12-22T10:19:55;10.70;99.90
18777;DHT22;9517;51.174;4.160;2023-12-22T10:22:24;10.70;99.90
18777;DHT22;9517;51.174;4.160;2023-12-22T10:24:51;10.80;99.90
18777;DHT22;9517;51.174;4.160;2023-12-22T10:27:19;10.80;99.90
18777;DHT22;9517;51.174;4.160;2023-12-22T10:29:48;10.80;99.90
18777;DHT22;9517;51.174;4.160;2023-12-22T10:32:16;10.80;99.90
18777;DHT22;9517;51.174;4.160;2023-12-22T10:34:43;10.80;99.90
18777;DHT22;9517;51.174;4.160;2023-12-22T10:37:13;10.80;99.90
18777;DHT22;9517;51.174;4.160;2023-12-22T10:39:42;10.70;99.90
18777;DHT22;9517;51.174;4.160;2023-12-22T10:47:40;10.50;99.90
18777;DHT22;9517;51.174;4.160;2023-12-22T10:50:11;10.40;99.90
18777;DHT22;9517;51.174;4.160;2023-12-22T10:52:39;10.30;99.90
18777;DHT22;9517;51.174;4.160;2023-12-22T10:55:14;10.40;99.90
18777;DHT22;9517;51.174;4.160;2023-12-22T10:57:45;10.40;99.90
18777;DHT22;9517;51.174;4.160;2023-12-22T11:00:14;10.40;99.90
18777;DHT22;9517;51.174;4.160;2023-12-22T11:02:47;10.30;99.90
18777;DHT22;9517;51.174;4.160;2023-12-22T11:05:25;10.20;99.90
18777;DHT22;9517;51.174;4.160;2023-12-22T11:07:55;10.10;99.90
18777;DHT22;9517;51.174;4.160;2023-12-22T11:10:30;10.10;99.90
18777;DHT22;9517;51.174;4.160;2023-12-22T11:12:58;10.10;99.90
18777;DHT22;9517;51.174;4.160;2023-12-22T11:15:26;10.20;99.90
18777;DHT22;9517;51.174;4.160;2023-12-22T11:17:56;10.20;99.90
18777;DHT22;9517;51.174;4.160;2023-12-22T11:20:25;10.30;99.90
18777;DHT22;9517;51.174;4.160;2023-12-22T11:22:59;10.40;99.90
18777;DHT22;9517;51.174;4.160;2023-12-22T11:25:49;10.40;99.90
18777;DHT22;9517;51.174;4.160;2023-12-22T11:32:07;10.50;99.90
18777;DHT22;9517;51.174;4.160;2023-12-22T11:34:42;10.60;99.90
18777;DHT22;9517;51.174;4.160;2023-12-22T11:37:23;10.70;99.90
18777;DHT22;9517;51.174;4.160;2023-12-22T11:40:56;10.80;99.90
18777;DHT22;9517;51.174;4.160;2023-12-22T11:43:26;10.80;99.90
18777;DHT22;9517;51.174;4.160;2023-12-22T11:45:53;10.90;99.90
18777;DHT22;9517;51.174;4.160;2023-12-22T11:48:29;11.00;99.90
18777;DHT22;9517;51.174;4.160;2023-12-22T11:51:13;11.00;99.90
18777;DHT22;9517;51.174;4.160;2023-12-22T11:53:55;11.10;99.90
18777;DHT22;9517;51.174;4.160;2023-12-22T11:56:25;11.10;99.90
18777;DHT22;9517;51.174;4.160;2023-12-22T11:58:54;11.10;99.90
18777;DHT22;9517;51.174;4.160;2023-12-22T12:01:34;11.10;99.90
18777;DHT22;9517;51.174;4.160;2023-12-22T12:04:21;11.10;99.90
18777;DHT22;9517;51.174;4.160;2023-12-22T12:06:53;11.10;99.90
18777;DHT22;9517;51.174;4.160;2023-12-22T12:09:46;11.00;99.90
18777;DHT22;9517;51.174;4.160;2023-12-22T12:12:16;11.00;99.90
18777;DHT22;9517;51.174;4.160;2023-12-22T12:15:08;11.10;99.90
18777;DHT22;9517;51.174;4.160;2023-12-22T12:17:38;11.10;99.90
18777;DHT22;9517;51.174;4.160;2023-12-22T12:20:10;11.10;99.90
18777;DHT22;9517;51.174;4.160;2023-12-22T12:22:38;11.10;99.90
18777;DHT22;9517;51.174;4.160;2023-12-22T12:25:11;11.10;99.90
18777;DHT22;9517;51.174;4.160;2023-12-22T12:27:39;11.10;99.90
18777;DHT22;9517;51.174;4.160;2023-12-22T12:30:25;11.00;99.90
18777;DHT22;9517;51.174;4.160;2023-12-22T12:32:59;10.90;99.90
18777;DHT22;9517;51.174;4.160;2023-12-22T12:35:30;11.00;99.90
18777;DHT22;9517;51.174;4.160;2023-12-22T12:37:58;11.00;99.90
18777;DHT22;9517;51.174;4.160;2023-12-22T12:40:27;11.00;99.90
18777;DHT22;9517;51.174;4.160;2023-12-22T12:43:00;11.10;99.90
18777;DHT22;9517;51.174;4.160;2023-12-22T12:45:30;11.00;99.90
18777;DHT22;9517;51.174;4.160;2023-12-22T12:47:58;11.00;99.90
18777;DHT22;9517;51.174;4.160;2023-12-22T12:50:33;11.10;99.90
18777;DHT22;9517;51.174;4.160;2023-12-22T12:53:02;11.10;99.90
18777;DHT22;9517;51.174;4.160;2023-12-22T12:55:31;11.10;99.90
18777;DHT22;9517;51.174;4.160;2023-12-22T12:58:13;11.10;99.90
18777;DHT22;9517;51.174;4.160;2023-12-22T13:01:10;11.10;99.90
18777;DHT22;9517;51.174;4.160;2023-12-22T13:03:53;11.10;99.90
18777;DHT22;9517;51.174;4.160;2023-12-22T13:06:23;11.10;99.90
18777;DHT22;9517;51.174;4.160;2023-12-22T13:08:51;11.10;99.90
18777;DHT22;9517;51.174;4.160;2023-12-22T13:11:24;11.10;99.90
18777;DHT22;9517;51.174;4.160;2023-12-22T13:13:51;11.10;99.90
18777;DHT22;9517;51.174;4.160;2023-12-22T13:19:12;11.20;99.90
18777;DHT22;9517;51.174;4.160;2023-12-22T13:21:41;11.10;99.90
18777;DHT22;9517;51.174;4.160;2023-12-22T13:24:09;11.10;99.90
18777;DHT22;9517;51.174;4.160;2023-12-22T13:26:36;11.10;99.90
18777;DHT22;9517;51.174;4.160;2023-12-22T13:29:04;11.10;99.90
18777;DHT22;9517;51.174;4.160;2023-12-22T13:31:31;11.10;99.90
18777;DHT22;9517;51.174;4.160;2023-12-22T13:34:01;11.00;99.90
18777;DHT22;9517;51.174;4.160;2023-12-22T13:36:33;11.00;99.90
18777;DHT22;9517;51.174;4.160;2023-12-22T13:39:02;11.00;99.90
18777;DHT22;9517;51.174;4.160;2023-12-22T13:41:33;11.10;99.90
18777;DHT22;9517;51.174;4.160;2023-12-22T13:44:03;11.10;99.90
18777;DHT22;9517;51.174;4.160;2023-12-22T13:46:31;11.10;99.90
18777;DHT22;9517;51.174;4.160;2023-12-22T13:49:01;11.20;99.90
18777;DHT22;9517;51.174;4.160;2023-12-22T13:51:40;11.20;99.90
18777;DHT22;9517;51.174;4.160;2023-12-22T13:54:08;11.20;99.90
18777;DHT22;9517;51.174;4.160;2023-12-22T13:56:42;11.30;99.90
18777;DHT22;9517;51.174;4.160;2023-12-22T13:59:12;11.30;99.90
18777;DHT22;9517;51.174;4.160;2023-12-22T14:01:41;11.30;99.90
18777;DHT22;9517;51.174;4.160;2023-12-22T14:04:22;11.30;99.90
18777;DHT22;9517;51.174;4.160;2023-12-22T14:07:01;11.30;99.90
18777;DHT22;9517;51.174;4.160;2023-12-22T14:09:31;11.30;99.90
18777;DHT22;9517;51.174;4.160;2023-12-22T14:12:01;11.30;99.90
18777;DHT22;9517;51.174;4.160;2023-12-22T14:14:30;11.30;99.90
18777;DHT22;9517;51.174;4.160;2023-12-22T14:16:58;11.30;99.90
18777;DHT22;9517;51.174;4.160;2023-12-22T14:19:26;11.30;99.90
18777;DHT22;9517;51.174;4.160;2023-12-22T14:21:55;11.30;99.90
18777;DHT22;9517;51.174;4.160;2023-12-22T14:24:22;11.30;99.90
18777;DHT22;9517;51.174;4.160;2023-12-22T14:26:53;11.30;99.90
18777;DHT22;9517;51.174;4.160;2023-12-22T14:29:22;11.30;99.90
18777;DHT22;9517;51.174;4.160;2023-12-22T14:31:49;11.30;99.90
18777;DHT22;9517;51.174;4.160;2023-12-22T14:34:17;11.30;99.90
18777;DHT22;9517;51.174;4.160;2023-12-22T14:36:44;11.30;99.90
18777;DHT22;9517;51.174;4.160;2023-12-22T14:39:16;11.30;99.90
18777;DHT22;9517;51.174;4.160;2023-12-22T14:41:43;11.30;99.90
18777;DHT22;9517;51.174;4.160;2023-12-22T14:44:10;11.30;99.90
18777;DHT22;9517;51.174;4.160;2023-12-22T14:46:37;11.30;99.90
18777;DHT22;9517;51.174;4.160;2023-12-22T14:49:06;11.40;99.90
18777;DHT22;9517;51.174;4.160;2023-12-22T14:51:36;11.30;99.90
18777;DHT22;9517;51.174;4.160;2023-12-22T14:54:04;11.30;99.90
18777;DHT22;9517;51.174;4.160;2023-12-22T14:56:33;11.40;99.90
18777;DHT22;9517;51.174;4.160;2023-12-22T14:59:00;11.30;99.90
18777;DHT22;9517;51.174;4.160;2023-12-22T15:01:30;11.30;99.90
18777;DHT22;9517;51.174;4.160;2023-12-22T15:04:06;11.30;99.90
18777;DHT22;9517;51.174;4.160;2023-12-22T15:06:36;11.30;99.90
18777;DHT22;9517;51.174;4.160;2023-12-22T15:09:04;11.30;99.90
18777;DHT22;9517;51.174;4.160;2023-12-22T15:11:32;11.30;99.90
18777;DHT22;9517;51.174;4.160;2023-12-22T15:13:59;11.30;99.90
18777;DHT22;9517;51.174;4.160;2023-12-22T15:16:31;11.20;99.90
18777;DHT22;9517;51.174;4.160;2023-12-22T15:18:58;11.30;99.90
18777;DHT22;9517;51.174;4.160;2023-12-22T15:21:25;11.30;99.90
18777;DHT22;9517;51.174;4.160;2023-12-22T15:23:52;11.30;99.90
18777;DHT22;9517;51.174;4.160;2023-12-22T15:26:21;11.30;99.90
18777;DHT22;9517;51.174;4.160;2023-12-22T15:28:49;11.40;99.90
18777;DHT22;9517;51.174;4.160;2023-12-22T15:31:16;11.30;99.90
18777;DHT22;9517;51.174;4.160;2023-12-22T15:33:44;11.40;99.90
18777;DHT22;9517;51.174;4.160;2023-12-22T15:36:16;11.30;99.90
18777;DHT22;9517;51.174;4.160;2023-12-22T15:38:43;11.30;99.90
18777;DHT22;9517;51.174;4.160;2023-12-22T15:41:10;11.40;99.90
18777;DHT22;9517;51.174;4.160;2023-12-22T15:43:38;11.30;99.90
18777;DHT22;9517;51.174;4.160;2023-12-22T15:46:07;11.30;99.90
18777;DHT22;9517;51.174;4.160;2023-12-22T15:48:34;11.40;99.90
18777;DHT22;9517;51.174;4.160;2023-12-22T15:51:05;11.40;99.90
18777;DHT22;9517;51.174;4.160;2023-12-22T15:53:33;11.40;99.90
18777;DHT22;9517;51.174;4.160;2023-12-22T15:56:03;11.40;99.90
18777;DHT22;9517;51.174;4.160;2023-12-22T15:58:31;11.40;99.90
18777;DHT22;9517;51.174;4.160;2023-12-22T16:00:58;11.40;99.90
18777;DHT22;9517;51.174;4.160;2023-12-22T16:03:27;11.40;99.90
18777;DHT22;9517;51.174;4.160;2023-12-22T16:05:54;11.30;99.90
18777;DHT22;9517;51.174;4.160;2023-12-22T16:08:21;11.30;99.90
18777;DHT22;9517;51.174;4.160;2023-12-22T16:10:49;11.30;99.90
18777;DHT22;9517;51.174;4.160;2023-12-22T16:13:16;11.30;99.90
18777;DHT22;9517;51.174;4.160;2023-12-22T16:15:43;11.30;99.90
18777;DHT22;9517;51.174;4.160;2023-12-22T16:18:10;11.30;99.90
18777;DHT22;9517;51.174;4.160;2023-12-22T16:20:39;11.30;99.90
18777;DHT22;9517;51.174;4.160;2023-12-22T16:23:07;11.30;99.90
18777;DHT22;9517;51.174;4.160;2023-12-22T16:28:51;11.30;99.90
18777;DHT22;9517;51.174;4.160;2023-12-22T16:31:19;11.30;99.90
18777;DHT22;9517;51.174;4.160;2023-12-22T16:34:05;11.30;99.90
18777;DHT22;9517;51.174;4.160;2023-12-22T16:36:36;11.30;99.90
18777;DHT22;9517;51.174;4.160;2023-12-22T16:39:24;11.20;99.90
18777;DHT22;9517;51.174;4.160;2023-12-22T16:41:59;11.20;99.90
18777;DHT22;9517;51.174;4.160;2023-12-22T16:44:41;11.10;99.90
18777;DHT22;9517;51.174;4.160;2023-12-22T16:50:50;11.10;99.90
18777;DHT22;9517;51.174;4.160;2023-12-22T16:53:45;11.20;99.90
18777;DHT22;9517;51.174;4.160;2023-12-22T16:56:17;11.20;99.90
18777;DHT22;9517;51.174;4.160;2023-12-22T16:58:51;11.20;99.90
18777;DHT22;9517;51.174;4.160;2023-12-22T17:01:20;11.20;99.90
18777;DHT22;9517;51.174;4.160;2023-12-22T17:03:50;11.20;99.90
18777;DHT22;9517;51.174;4.160;2023-12-22T17:06:20;11.20;99.90
18777;DHT22;9517;51.174;4.160;2023-12-22T17:08:58;11.20;99.90
18777;DHT22;9517;51.174;4.160;2023-12-22T17:11:29;11.20;99.90
18777;DHT22;9517;51.174;4.160;2023-12-22T17:20:47;11.20;99.90
18777;DHT22;9517;51.174;4.160;2023-12-22T17:48:24;11.20;99.90
18777;DHT22;9517;51.174;4.160;2023-12-22T17:50:56;11.20;99.90
18777;DHT22;9517;51.174;4.160;2023-12-22T17:53:26;11.20;99.90
18777;DHT22;9517;51.174;4.160;2023-12-22T17:55:58;11.20;99.90
18777;DHT22;9517;51.174;4.160;2023-12-22T17:58:47;11.10;99.90
18777;DHT22;9517;51.174;4.160;2023-12-22T18:02:16;11.10;99.90
18777;DHT22;9517;51.174;4.160;2023-12-22T18:05:17;11.10;99.90
18777;DHT22;9517;51.174;4.160;2023-12-22T18:08:17;11.10;99.90
18777;DHT22;9517;51.174;4.160;2023-12-22T18:14:09;11.10;99.90
18777;DHT22;9517;51.174;4.160;2023-12-22T18:16:43;11.10;99.90
18777;DHT22;9517;51.174;4.160;2023-12-22T18:19:12;11.10;99.90
18777;DHT22;9517;51.174;4.160;2023-12-22T18:21:44;11.10;99.90
18777;DHT22;9517;51.174;4.160;2023-12-22T18:24:11;11.10;99.90
18777;DHT22;9517;51.174;4.160;2023-12-22T18:26:38;11.10;99.90
18777;DHT22;9517;51.174;4.160;2023-12-22T18:29:06;11.10;99.90
18777;DHT22;9517;51.174;4.160;2023-12-22T18:31:33;11.10;99.90
18777;DHT22;9517;51.174;4.160;2023-12-22T18:34:03;11.10;99.90
18777;DHT22;9517;51.174;4.160;2023-12-22T18:36:37;11.10;99.90
18777;DHT22;9517;51.174;4.160;2023-12-22T18:39:09;11.10;99.90
18777;DHT22;9517;51.174;4.160;2023-12-22T18:41:42;11.10;99.90
18777;DHT22;9517;51.174;4.160;2023-12-22T18:44:19;11.10;99.90
18777;DHT22;9517;51.174;4.160;2023-12-22T18:46:57;11.10;99.90
18777;DHT22;9517;51.174;4.160;2023-12-22T18:49:42;11.10;99.90
18777;DHT22;9517;51.174;4.160;2023-12-22T19:12:53;11.00;99.90
18777;DHT22;9517;51.174;4.160;2023-12-22T19:45:30;11.00;99.90
18777;DHT22;9517;51.174;4.160;2023-12-22T19:48:05;11.00;99.90
18777;DHT22;9517;51.174;4.160;2023-12-22T19:50:34;11.00;99.90
18777;DHT22;9517;51.174;4.160;2023-12-22T19:53:15;11.00;99.90
18777;DHT22;9517;51.174;4.160;2023-12-22T19:55:48;11.00;99.90
18777;DHT22;9517;51.174;4.160;2023-12-22T19:58:20;11.00;99.90
18777;DHT22;9517;51.174;4.160;2023-12-22T20:01:08;11.00;99.90
18777;DHT22;9517;51.174;4.160;2023-12-22T20:03:38;11.00;99.90
18777;DHT22;9517;51.174;4.160;2023-12-22T20:06:47;11.00;99.90
18777;DHT22;9517;51.174;4.160;2023-12-22T20:09:20;11.00;99.90
18777;DHT22;9517;51.174;4.160;2023-12-22T20:12:01;10.90;99.90
18777;DHT22;9517;51.174;4.160;2023-12-22T20:14:33;10.90;99.90
18777;DHT22;9517;51.174;4.160;2023-12-22T20:17:12;10.90;99.90
18777;DHT22;9517;51.174;4.160;2023-12-22T20:19:40;11.00;99.90
18777;DHT22;9517;51.174;4.160;2023-12-22T20:22:10;10.90;99.90
18777;DHT22;9517;51.174;4.160;2023-12-22T20:24:55;10.90;99.90
18777;DHT22;9517;51.174;4.160;2023-12-22T20:27:45;10.90;99.90
18777;DHT22;9517;51.174;4.160;2023-12-22T20:33:21;10.90;99.90
18777;DHT22;9517;51.174;4.160;2023-12-22T20:54:48;10.90;99.90
18777;DHT22;9517;51.174;4.160;2023-12-22T20:58:17;10.90;99.90
18777;DHT22;9517;51.174;4.160;2023-12-22T21:00:51;10.80;99.90
18777;DHT22;9517;51.174;4.160;2023-12-22T21:03:22;10.80;99.90